createdAt,value
2019-05-25T00:00:24.339Z,90.63
2019-05-25T00:01:24.411Z,91.02
2019-05-25T00:02:24.307Z,90.73
2019-05-25T00:03:24.341Z,91.02
2019-05-25T00:04:24.418Z,91.20
2019-05-25T00:05:24.366Z,90.92
2019-05-25T00:06:25.058Z,91.30
2019-05-25T00:07:24.526Z,90.92
2019-05-25T00:08:24.630Z,90.73
2019-05-25T00:09:24.416Z,91.11
2019-05-25T00:10:24.528Z,91.49
2019-05-25T00:11:24.433Z,91.49
2019-05-25T00:12:24.448Z,90.92
2019-05-25T00:13:24.531Z,92.07
2019-05-25T00:14:24.548Z,91.88
2019-05-25T00:15:24.507Z,91.78
2019-05-25T00:16:24.607Z,91.97
2019-05-25T00:17:24.516Z,91.78
2019-05-25T00:18:24.530Z,91.30
2019-05-25T00:19:24.574Z,91.02
2019-05-25T00:20:24.567Z,92.07
2019-05-25T00:21:24.579Z,92.07
2019-05-25T00:22:24.674Z,92.35
2019-05-25T00:23:24.842Z,91.88
2019-05-25T00:24:24.626Z,92.54
2019-05-25T00:25:24.671Z,92.74
2019-05-25T00:26:24.755Z,93.02
2019-05-25T00:27:24.667Z,93.02
2019-05-25T00:28:24.709Z,93.21
2019-05-25T00:29:24.696Z,92.93
2019-05-25T00:30:24.774Z,92.74
2019-05-25T00:31:24.729Z,93.02
2019-05-25T00:32:24.732Z,92.74
2019-05-25T00:33:24.762Z,93.12
2019-05-25T00:34:25.225Z,93.21
2019-05-25T00:35:24.775Z,93.40
2019-05-25T00:36:25.247Z,94.17
2019-05-25T00:37:24.879Z,93.50
2019-05-25T00:38:24.835Z,93.40
2019-05-25T00:39:24.834Z,93.36
2019-05-25T00:40:24.851Z,93.98
2019-05-25T00:41:24.864Z,93.50
2019-05-25T00:42:24.867Z,93.88
2019-05-25T00:43:24.887Z,93.74
2019-05-25T00:44:24.988Z,93.79
2019-05-25T00:45:25.101Z,93.74
2019-05-25T00:46:24.969Z,93.65
2019-05-25T00:47:24.951Z,93.79
2019-05-25T00:48:24.953Z,94.12
2019-05-25T00:49:24.963Z,93.65
2019-05-25T00:50:24.999Z,93.45
2019-05-25T00:51:25.204Z,94.41
2019-05-25T00:52:25.231Z,93.74
2019-05-25T00:53:25.016Z,94.51
2019-05-25T00:54:27.891Z,94.41
2019-05-25T00:55:25.394Z,93.74
2019-05-25T00:56:25.071Z,95.17
2019-05-25T00:57:25.208Z,96.70
2019-05-25T00:58:25.108Z,95.56
2019-05-25T00:59:25.105Z,96.46
2019-05-25T01:00:25.116Z,96.32
2019-05-25T01:01:25.294Z,97.71
2019-05-25T01:02:25.146Z,97.66
2019-05-25T01:03:25.332Z,97.66
2019-05-25T01:04:25.357Z,96.99
2019-05-25T01:05:25.272Z,96.51
2019-05-25T01:06:26.331Z,96.42
2019-05-25T01:07:25.224Z,95.94
2019-05-25T01:08:25.235Z,95.94
2019-05-25T01:09:25.283Z,96.32
2019-05-25T01:10:25.279Z,95.56
2019-05-25T01:12:25.432Z,95.46
2019-05-25T01:14:25.319Z,95.84
2019-05-25T01:15:25.381Z,95.84
2019-05-25T01:16:25.357Z,95.61
2019-05-25T01:17:25.365Z,96.66
2019-05-25T01:18:25.506Z,96.46
2019-05-25T01:19:25.878Z,97.13
2019-05-25T01:20:25.405Z,97.03
2019-05-25T01:21:25.410Z,96.94
2019-05-25T01:22:25.422Z,97.03
2019-05-25T01:23:25.461Z,97.80
2019-05-25T01:24:25.486Z,98.23
2019-05-25T01:25:25.463Z,98.57
2019-05-25T01:26:26.013Z,98.04
2019-05-25T01:28:25.887Z,96.84
2019-05-25T01:29:25.522Z,97.94
2019-05-25T01:32:25.582Z,97.52
2019-05-25T01:33:25.687Z,97.71
2019-05-25T01:34:25.587Z,98.13
2019-05-25T01:35:25.624Z,97.66
2019-05-25T01:36:25.628Z,98.04
2019-05-25T01:37:26.320Z,97.18
2019-05-25T01:38:25.660Z,97.08
2019-05-25T01:39:25.673Z,97.75
2019-05-25T01:40:25.677Z,97.75
2019-05-25T01:41:25.704Z,97.56
2019-05-25T01:42:25.703Z,97.66
2019-05-25T01:43:25.767Z,96.84
2019-05-25T01:44:25.757Z,97.89
2019-05-25T01:45:25.744Z,98.18
2019-05-25T01:46:25.763Z,98.57
2019-05-25T01:47:25.876Z,98.47
2019-05-25T01:48:26.976Z,98.94
2019-05-25T01:50:25.911Z,98.47
2019-05-25T01:51:26.058Z,98.94
2019-05-25T01:52:25.844Z,98.28
2019-05-25T01:53:25.860Z,98.57
2019-05-25T01:54:25.876Z,99.99
2019-05-25T01:55:25.880Z,99.43
2019-05-25T01:56:25.897Z,99.33
2019-05-25T01:57:25.920Z,99.62
2019-05-25T01:59:26.488Z,97.89
2019-05-25T02:00:26.430Z,98.37
2019-05-25T02:01:27.386Z,98.47
2019-05-25T02:02:25.981Z,98.85
2019-05-25T02:04:26.092Z,98.47
2019-05-25T02:05:26.022Z,98.75
2019-05-25T02:06:26.039Z,98.85
2019-05-25T02:07:26.491Z,98.57
2019-05-25T02:08:26.069Z,97.61
2019-05-25T02:09:26.076Z,97.89
2019-05-25T02:10:26.098Z,98.47
2019-05-25T02:11:26.124Z,97.71
2019-05-25T02:13:26.138Z,98.08
2019-05-25T02:14:26.142Z,98.28
2019-05-25T02:15:26.177Z,98.66
2019-05-25T02:16:26.188Z,98.94
2019-05-25T02:17:26.186Z,98.75
2019-05-25T02:18:26.204Z,98.37
2019-05-25T02:19:26.274Z,98.37
2019-05-25T02:20:26.315Z,98.37
2019-05-25T02:21:26.273Z,98.85
2019-05-25T02:23:26.300Z,98.57
2019-05-25T02:24:26.282Z,98.85
2019-05-25T02:25:26.298Z,98.66
2019-05-25T02:26:26.320Z,97.80
2019-05-25T02:27:26.385Z,98.37
2019-05-25T02:29:26.351Z,98.85
2019-05-25T02:30:26.388Z,98.47
2019-05-25T02:31:26.394Z,99.14
2019-05-25T02:32:26.401Z,97.89
2019-05-25T02:33:26.407Z,97.99
2019-05-25T02:34:26.633Z,98.37
2019-05-25T02:35:26.794Z,98.75
2019-05-25T02:36:26.965Z,98.37
2019-05-25T02:37:26.482Z,98.37
2019-05-25T02:38:26.494Z,98.37
2019-05-25T02:39:26.489Z,98.75
2019-05-25T02:40:26.830Z,98.42
2019-05-25T02:41:26.528Z,98.66
2019-05-25T02:42:26.538Z,98.23
2019-05-25T02:43:26.546Z,98.52
2019-05-25T02:44:26.953Z,98.61
2019-05-25T02:45:26.641Z,99.08
2019-05-25T02:46:27.032Z,99.18
2019-05-25T02:47:26.623Z,99.37
2019-05-25T02:48:26.614Z,99.28
2019-05-25T02:49:26.694Z,98.80
2019-05-25T02:50:26.695Z,98.80
2019-05-25T02:51:26.654Z,99.66
2019-05-25T02:52:26.668Z,99.99
2019-05-25T02:54:26.859Z,99.76
2019-05-25T02:55:34.157Z,99.99
2019-05-25T02:56:26.917Z,99.99
2019-05-25T02:57:26.740Z,98.80
2019-05-25T02:58:26.755Z,99.66
2019-05-25T02:59:26.784Z,99.95
2019-05-25T03:00:27.344Z,98.90
2019-05-25T03:01:26.789Z,98.90
2019-05-25T03:02:26.805Z,99.08
2019-05-25T03:03:26.868Z,99.47
2019-05-25T03:04:26.963Z,99.76
2019-05-25T03:05:26.850Z,99.99
2019-05-25T03:07:26.870Z,99.99
2019-05-25T03:08:26.887Z,99.99
2019-05-25T03:09:26.904Z,99.99
2019-05-25T03:10:26.968Z,99.66
2019-05-25T03:11:26.935Z,98.71
2019-05-25T03:12:26.991Z,99.66
2019-05-25T03:13:26.961Z,98.80
2019-05-25T03:14:26.973Z,99.37
2019-05-25T03:15:27.003Z,99.66
2019-05-25T03:16:26.999Z,99.85
2019-05-25T03:17:27.014Z,99.57
2019-05-25T03:18:27.032Z,99.66
2019-05-25T03:19:27.067Z,99.76
2019-05-25T03:20:27.081Z,98.71
2019-05-25T03:21:27.064Z,99.28
2019-05-25T03:22:27.089Z,98.80
2019-05-25T03:23:27.144Z,98.52
2019-05-25T03:24:27.510Z,99.99
2019-05-25T03:25:27.243Z,99.66
2019-05-25T03:26:27.314Z,98.90
2019-05-25T03:27:27.496Z,99.66
2019-05-25T03:28:27.175Z,99.99
2019-05-25T03:29:27.428Z,99.99
2019-05-25T03:30:27.188Z,99.28
2019-05-25T03:31:27.225Z,99.08
2019-05-25T03:32:27.256Z,98.52
2019-05-25T03:33:27.231Z,99.37
2019-05-25T03:34:27.244Z,98.80
2019-05-25T03:35:27.607Z,98.61
2019-05-25T03:36:27.273Z,99.08
2019-05-25T03:37:27.285Z,99.62
2019-05-25T03:38:27.701Z,99.76
2019-05-25T03:39:27.316Z,99.99
2019-05-25T03:40:27.325Z,99.85
2019-05-25T03:41:27.335Z,99.99
2019-05-25T03:42:27.350Z,99.99
2019-05-25T03:43:27.363Z,99.76
2019-05-25T03:44:27.383Z,99.99
2019-05-25T03:45:27.398Z,99.99
2019-05-25T03:47:27.417Z,99.95
2019-05-25T03:48:27.484Z,98.71
2019-05-25T03:50:27.461Z,99.76
2019-05-25T03:51:28.080Z,99.71
2019-05-25T03:52:27.505Z,99.90
2019-05-25T03:53:27.536Z,98.90
2019-05-25T03:54:28.307Z,99.95
2019-05-25T03:55:27.549Z,99.28
2019-05-25T03:56:27.543Z,98.90
2019-05-25T03:57:27.595Z,99.08
2019-05-25T03:58:27.576Z,99.57
2019-05-25T03:59:27.582Z,98.80
2019-05-25T04:00:27.733Z,99.99
2019-05-25T04:01:27.625Z,99.99
2019-05-25T04:02:27.659Z,99.99
2019-05-25T04:03:27.652Z,98.90
2019-05-25T04:04:27.654Z,98.61
2019-05-25T04:05:27.773Z,98.42
2019-05-25T04:06:27.730Z,98.90
2019-05-25T04:07:27.691Z,98.18
2019-05-25T04:08:27.706Z,97.71
2019-05-25T04:09:27.716Z,97.03
2019-05-25T04:10:27.783Z,97.23
2019-05-25T04:11:27.800Z,97.13
2019-05-25T04:12:27.818Z,98.18
2019-05-25T04:13:27.772Z,97.80
2019-05-25T04:14:27.798Z,96.75
2019-05-25T04:15:27.808Z,96.84
2019-05-25T04:16:27.816Z,97.23
2019-05-25T04:17:27.828Z,95.61
2019-05-25T04:18:27.839Z,94.74
2019-05-25T04:19:27.861Z,95.41
2019-05-25T04:20:28.085Z,95.27
2019-05-25T04:22:27.896Z,94.22
2019-05-25T04:23:28.233Z,94.60
2019-05-25T04:24:27.936Z,94.70
2019-05-25T04:25:27.974Z,95.17
2019-05-25T04:26:27.950Z,94.89
2019-05-25T04:27:27.966Z,93.55
2019-05-25T04:28:27.989Z,93.16
2019-05-25T04:29:28.008Z,92.88
2019-05-25T04:30:28.369Z,92.64
2019-05-25T04:31:28.128Z,92.93
2019-05-25T04:32:28.099Z,93.88
2019-05-25T04:33:28.050Z,93.21
2019-05-25T04:34:28.112Z,93.31
2019-05-25T04:35:28.198Z,93.79
2019-05-25T04:37:28.309Z,93.50
2019-05-25T04:38:28.130Z,94.36
2019-05-25T04:39:29.112Z,94.55
2019-05-25T04:40:28.267Z,94.46
2019-05-25T04:41:28.156Z,94.55
2019-05-25T04:42:28.209Z,94.02
2019-05-25T04:43:28.498Z,94.12
2019-05-25T04:44:28.201Z,94.12
2019-05-25T04:45:28.217Z,93.36
2019-05-25T04:46:28.226Z,93.55
2019-05-25T04:47:28.243Z,92.69
2019-05-25T04:48:28.306Z,93.93
2019-05-25T04:49:28.276Z,93.45
2019-05-25T04:50:28.285Z,92.02
2019-05-25T04:51:28.352Z,91.93
2019-05-25T04:52:28.314Z,90.97
2019-05-25T04:53:28.325Z,91.45
2019-05-25T04:54:28.419Z,91.93
2019-05-25T04:55:28.398Z,91.74
2019-05-25T04:56:39.030Z,92.02
2019-05-25T04:57:28.546Z,91.83
2019-05-25T04:58:28.397Z,92.11
2019-05-25T04:59:28.416Z,92.40
2019-05-25T05:00:28.425Z,92.59
2019-05-25T05:01:28.437Z,91.93
2019-05-25T05:02:28.450Z,92.40
2019-05-25T05:03:28.493Z,92.64
2019-05-25T05:04:28.558Z,93.41
2019-05-25T05:05:28.493Z,94.46
2019-05-25T05:06:28.526Z,93.50
2019-05-25T05:07:29.384Z,93.60
2019-05-25T05:08:28.581Z,92.74
2019-05-25T05:09:28.624Z,92.97
2019-05-25T05:10:28.577Z,93.26
2019-05-25T05:11:29.013Z,92.02
2019-05-25T05:12:28.991Z,92.02
2019-05-25T05:13:28.599Z,92.11
2019-05-25T05:14:28.633Z,92.11
2019-05-25T05:15:28.635Z,92.50
2019-05-25T05:16:28.646Z,92.83
2019-05-25T05:17:28.656Z,92.64
2019-05-25T05:18:28.672Z,92.83
2019-05-25T05:19:28.683Z,93.31
2019-05-25T05:20:28.748Z,94.17
2019-05-25T05:21:28.721Z,93.50
2019-05-25T05:22:28.752Z,93.60
2019-05-25T05:23:28.744Z,93.70
2019-05-25T05:24:28.753Z,93.31
2019-05-25T05:25:28.764Z,93.60
2019-05-25T05:26:28.783Z,94.46
2019-05-25T05:27:28.942Z,94.36
2019-05-25T05:28:28.810Z,94.46
2019-05-25T05:29:28.819Z,94.65
2019-05-25T05:30:28.837Z,94.36
2019-05-25T05:31:29.085Z,93.74
2019-05-25T05:32:28.873Z,92.30
2019-05-25T05:33:28.888Z,92.30
2019-05-25T05:34:29.951Z,92.59
2019-05-25T05:35:28.918Z,92.50
2019-05-25T05:36:28.985Z,92.59
2019-05-25T05:37:29.042Z,93.12
2019-05-25T05:38:29.558Z,93.21
2019-05-25T05:39:29.339Z,92.93
2019-05-25T05:40:29.719Z,92.74
2019-05-25T05:41:31.126Z,93.31
2019-05-25T05:42:29.294Z,94.36
2019-05-25T05:43:29.164Z,94.60
2019-05-25T05:44:29.036Z,93.36
2019-05-25T05:45:29.046Z,93.16
2019-05-25T05:46:29.521Z,92.02
2019-05-25T05:47:29.073Z,91.06
2019-05-25T05:48:29.128Z,91.06
2019-05-25T05:49:29.498Z,91.83
2019-05-25T05:50:29.270Z,91.45
2019-05-25T05:51:29.127Z,91.64
2019-05-25T05:52:29.466Z,91.06
2019-05-25T05:53:29.155Z,90.88
2019-05-25T05:54:29.174Z,91.25
2019-05-25T05:55:29.187Z,92.11
2019-05-25T05:56:29.196Z,91.93
2019-05-25T05:57:29.232Z,92.59
2019-05-25T05:58:29.319Z,92.69
2019-05-25T05:59:29.243Z,93.31
2019-05-25T06:00:29.316Z,93.50
2019-05-25T06:01:29.429Z,93.21
2019-05-25T06:02:29.297Z,92.16
2019-05-25T06:04:29.308Z,91.11
2019-05-25T06:05:29.477Z,90.16
2019-05-25T06:06:29.343Z,90.49
2019-05-25T06:08:29.380Z,90.78
2019-05-25T06:09:29.424Z,92.79
2019-05-25T06:10:29.810Z,92.97
2019-05-25T06:11:29.587Z,92.21
2019-05-25T06:12:29.527Z,92.74
2019-05-25T06:13:29.433Z,91.88
2019-05-25T06:15:29.472Z,91.20
2019-05-25T06:16:29.487Z,91.25
2019-05-25T06:17:29.501Z,91.49
2019-05-25T06:18:29.503Z,91.39
2019-05-25T06:19:29.517Z,91.02
2019-05-25T06:20:29.662Z,90.63
2019-05-25T06:21:29.687Z,90.63
2019-05-25T06:22:29.557Z,91.02
2019-05-25T06:23:29.582Z,90.68
2019-05-25T06:24:30.154Z,92.16
2019-05-25T06:25:29.615Z,91.59
2019-05-25T06:26:29.669Z,91.30
2019-05-25T06:27:29.634Z,93.21
2019-05-25T06:28:29.654Z,91.68
2019-05-25T06:29:30.096Z,90.34
2019-05-25T06:30:30.708Z,91.02
2019-05-25T06:31:29.754Z,91.68
2019-05-25T06:32:29.711Z,91.88
2019-05-25T06:33:29.765Z,90.06
2019-05-25T06:34:29.726Z,88.91
2019-05-25T06:35:29.743Z,90.06
2019-05-25T06:36:29.775Z,87.53
2019-05-25T06:37:29.777Z,87.82
2019-05-25T06:38:29.853Z,88.43
2019-05-25T06:39:29.796Z,87.82
2019-05-25T06:40:29.811Z,87.09
2019-05-25T06:41:29.830Z,86.90
2019-05-25T06:42:30.018Z,86.43
2019-05-25T06:43:29.860Z,86.43
2019-05-25T06:44:29.869Z,87.00
2019-05-25T06:45:29.884Z,86.57
2019-05-25T06:46:30.199Z,86.47
2019-05-25T06:48:30.248Z,83.40
2019-05-25T06:49:29.964Z,81.78
2019-05-25T06:50:29.956Z,81.30
2019-05-25T06:51:29.971Z,80.44
2019-05-25T06:52:29.984Z,79.87
2019-05-25T06:53:30.149Z,79.20
2019-05-25T06:54:30.016Z,79.10
2019-05-25T06:55:30.105Z,78.91
2019-05-25T06:56:30.043Z,77.86
2019-05-25T06:57:42.045Z,77.57
2019-05-25T06:58:30.118Z,75.09
2019-05-25T06:59:30.083Z,74.22
2019-05-25T07:00:30.104Z,75.47
2019-05-25T07:01:30.119Z,76.52
2019-05-25T07:02:30.133Z,75.66
2019-05-25T07:03:30.191Z,75.56
2019-05-25T07:04:30.155Z,75.18
2019-05-25T07:05:30.197Z,74.70
2019-05-25T07:06:30.184Z,75.18
2019-05-25T07:07:30.198Z,74.32
2019-05-25T07:08:30.272Z,73.46
2019-05-25T07:09:30.249Z,73.79
2019-05-25T07:10:30.265Z,74.45
2019-05-25T07:11:30.299Z,75.02
2019-05-25T07:12:30.335Z,73.30
2019-05-25T07:13:30.327Z,73.30
2019-05-25T07:14:30.416Z,73.79
2019-05-25T07:15:30.321Z,72.63
2019-05-25T07:17:30.646Z,72.44
2019-05-25T07:18:30.381Z,73.50
2019-05-25T07:19:30.373Z,72.92
2019-05-25T07:20:30.394Z,72.92
2019-05-25T07:21:30.401Z,73.65
2019-05-25T07:22:30.432Z,73.30
2019-05-25T07:23:31.605Z,74.36
2019-05-25T07:24:30.598Z,73.59
2019-05-25T07:25:30.478Z,73.88
2019-05-25T07:26:31.251Z,73.50
2019-05-25T07:27:30.496Z,73.55
2019-05-25T07:28:30.513Z,74.22
2019-05-25T07:29:30.537Z,73.84
2019-05-25T07:30:30.563Z,74.22
2019-05-25T07:31:30.712Z,74.32
2019-05-25T07:32:30.638Z,74.32
2019-05-25T07:33:30.588Z,75.27
2019-05-25T07:34:31.474Z,75.37
2019-05-25T07:35:30.638Z,75.76
2019-05-25T07:36:30.635Z,74.80
2019-05-25T07:37:30.689Z,73.97
2019-05-25T07:38:30.699Z,73.40
2019-05-25T07:39:30.689Z,74.26
2019-05-25T07:40:30.721Z,73.88
2019-05-25T07:41:30.728Z,73.88
2019-05-25T07:42:30.731Z,74.74
2019-05-25T07:44:30.785Z,72.25
2019-05-25T07:45:30.781Z,72.83
2019-05-25T07:47:30.805Z,73.50
2019-05-25T07:48:30.928Z,74.30
2019-05-25T07:50:30.836Z,72.54
2019-05-25T07:51:31.793Z,73.63
2019-05-25T07:52:31.988Z,73.72
2019-05-25T07:53:31.006Z,73.63
2019-05-25T07:54:31.827Z,72.58
2019-05-25T07:55:31.727Z,72.54
2019-05-25T07:56:31.064Z,73.30
2019-05-25T07:57:31.359Z,72.86
2019-05-25T07:58:31.206Z,73.54
2019-05-25T07:59:32.769Z,73.34
2019-05-25T08:00:31.131Z,73.44
2019-05-25T08:01:31.249Z,72.00
2019-05-25T08:02:31.239Z,71.33
2019-05-25T08:03:31.410Z,70.56
2019-05-25T08:05:31.810Z,70.91
2019-05-25T08:07:31.257Z,71.30
2019-05-25T08:08:31.229Z,71.68
2019-05-25T08:09:31.185Z,72.06
2019-05-25T08:11:31.263Z,70.95
2019-05-25T08:12:31.895Z,70.85
2019-05-25T08:13:31.223Z,70.85
2019-05-25T08:14:31.431Z,70.47
2019-05-25T08:15:31.442Z,70.37
2019-05-25T08:16:31.258Z,71.04
2019-05-25T08:17:31.660Z,71.52
2019-05-25T08:18:31.261Z,72.09
2019-05-25T08:19:31.287Z,71.14
2019-05-25T08:20:31.766Z,71.23
2019-05-25T08:21:31.348Z,71.71
2019-05-25T08:22:32.820Z,71.71
2019-05-25T08:23:32.491Z,71.04
2019-05-25T08:26:31.713Z,70.95
2019-05-25T08:27:31.460Z,71.23
2019-05-25T08:28:33.313Z,71.17
2019-05-25T08:29:31.518Z,70.70
2019-05-25T08:30:31.583Z,70.98
2019-05-25T08:31:31.687Z,70.41
2019-05-25T08:32:31.479Z,70.54
2019-05-25T08:33:31.633Z,70.73
2019-05-25T08:34:31.683Z,70.73
2019-05-25T08:35:31.536Z,69.10
2019-05-25T08:36:31.903Z,68.72
2019-05-25T08:37:31.931Z,68.91
2019-05-25T08:38:31.596Z,68.85
2019-05-25T08:39:31.660Z,68.27
2019-05-25T08:40:31.617Z,68.46
2019-05-25T08:41:31.615Z,68.27
2019-05-25T08:43:32.394Z,67.57
2019-05-25T08:44:31.878Z,68.43
2019-05-25T08:45:31.880Z,68.40
2019-05-25T08:47:31.757Z,69.54
2019-05-25T08:48:31.782Z,70.31
2019-05-25T08:49:31.918Z,70.31
2019-05-25T08:50:38.261Z,70.31
2019-05-25T08:51:32.060Z,69.83
2019-05-25T08:52:31.789Z,69.93
2019-05-25T08:53:41.433Z,69.87
2019-05-25T08:54:31.865Z,69.20
2019-05-25T08:55:31.889Z,69.20
2019-05-25T08:56:32.412Z,68.24
2019-05-25T08:57:31.932Z,67.95
2019-05-25T08:58:47.193Z,68.14
2019-05-25T08:59:31.883Z,68.59
2019-05-25T09:00:31.901Z,68.59
2019-05-25T09:01:32.039Z,68.97
2019-05-25T09:03:32.011Z,69.74
2019-05-25T09:04:32.021Z,69.74
2019-05-25T09:05:32.061Z,68.91
2019-05-25T09:06:32.575Z,68.59
2019-05-25T09:07:32.053Z,69.07
2019-05-25T09:09:32.149Z,69.54
2019-05-25T09:10:32.237Z,71.08
2019-05-25T09:11:32.109Z,70.41
2019-05-25T09:12:32.466Z,71.40
2019-05-25T09:13:32.375Z,70.25
2019-05-25T09:15:32.136Z,68.14
2019-05-25T09:16:32.171Z,68.52
2019-05-25T09:17:32.749Z,69.20
2019-05-25T09:19:32.198Z,69.96
2019-05-25T09:20:32.510Z,70.25
2019-05-25T09:21:32.226Z,70.06
2019-05-25T09:22:32.313Z,70.12
2019-05-25T09:23:32.278Z,70.60
2019-05-25T09:24:32.448Z,71.08
2019-05-25T09:25:32.743Z,71.94
2019-05-25T09:26:32.398Z,71.69
2019-05-25T09:27:32.328Z,70.73
2019-05-25T09:28:32.469Z,70.35
2019-05-25T09:29:32.717Z,69.87
2019-05-25T09:30:32.369Z,69.90
2019-05-25T09:31:32.408Z,69.23
2019-05-25T09:32:32.406Z,68.85
2019-05-25T09:33:32.478Z,68.85
2019-05-25T09:35:32.651Z,69.13
2019-05-25T09:36:32.479Z,69.52
2019-05-25T09:37:32.480Z,69.13
2019-05-25T09:38:32.785Z,68.95
2019-05-25T09:39:32.561Z,69.90
2019-05-25T09:40:32.582Z,69.42
2019-05-25T09:41:32.625Z,70.86
2019-05-25T09:43:34.005Z,69.13
2019-05-25T09:44:33.053Z,69.52
2019-05-25T09:45:32.633Z,69.13
2019-05-25T09:47:32.772Z,68.37
2019-05-25T09:48:32.651Z,68.46
2019-05-25T09:49:32.996Z,68.46
2019-05-25T09:50:32.690Z,69.01
2019-05-25T09:51:32.694Z,70.06
2019-05-25T09:52:32.714Z,70.25
2019-05-25T09:53:32.902Z,70.25
2019-05-25T09:54:32.734Z,69.77
2019-05-25T09:56:32.816Z,69.62
2019-05-25T09:57:33.443Z,68.95
2019-05-25T09:59:32.831Z,69.56
2019-05-25T10:00:32.950Z,68.53
2019-05-25T10:01:33.302Z,66.71
2019-05-25T10:02:33.383Z,66.71
2019-05-25T10:03:33.351Z,66.71
2019-05-25T10:04:32.899Z,66.42
2019-05-25T10:06:32.925Z,66.67
2019-05-25T10:07:33.025Z,66.23
2019-05-25T10:08:32.990Z,65.75
2019-05-25T10:10:33.363Z,66.77
2019-05-25T10:11:33.004Z,65.56
2019-05-25T10:12:33.032Z,66.55
2019-05-25T10:13:33.146Z,65.40
2019-05-25T10:14:33.072Z,64.25
2019-05-25T10:15:33.094Z,64.25
2019-05-25T10:16:33.128Z,65.11
2019-05-25T10:19:33.165Z,64.89
2019-05-25T10:20:33.734Z,64.12
2019-05-25T10:21:33.162Z,64.18
2019-05-25T10:22:33.232Z,65.62
2019-05-25T10:23:33.407Z,65.36
2019-05-25T10:25:33.901Z,65.94
2019-05-25T10:27:34.343Z,65.08
2019-05-25T10:29:37.168Z,65.36
2019-05-25T10:30:33.333Z,65.52
2019-05-25T10:31:33.424Z,66.19
2019-05-25T10:32:33.687Z,65.91
2019-05-25T10:34:33.400Z,66.71
2019-05-25T10:35:33.382Z,65.84
2019-05-25T10:36:33.397Z,65.69
2019-05-25T10:38:34.466Z,63.09
2019-05-25T10:39:33.557Z,62.96
2019-05-25T10:40:33.491Z,62.77
2019-05-25T10:41:33.481Z,64.18
2019-05-25T10:42:33.503Z,65.23
2019-05-25T10:43:33.590Z,66.00
2019-05-25T10:44:33.575Z,66.58
2019-05-25T10:45:33.566Z,65.62
2019-05-25T10:47:34.275Z,64.40
2019-05-25T10:48:33.628Z,64.89
2019-05-25T10:49:33.613Z,64.89
2019-05-25T10:50:33.657Z,65.56
2019-05-25T10:51:33.654Z,65.81
2019-05-25T10:52:33.843Z,66.03
2019-05-25T10:53:33.867Z,66.90
2019-05-25T10:54:36.946Z,65.36
2019-05-25T10:55:33.735Z,65.08
2019-05-25T10:58:34.819Z,66.26
2019-05-25T10:59:34.003Z,66.55
2019-05-25T11:00:33.921Z,66.74
2019-05-25T11:01:33.954Z,64.53
2019-05-25T11:02:33.871Z,63.38
2019-05-25T11:03:33.928Z,62.99
2019-05-25T11:04:34.016Z,64.43
2019-05-25T11:05:34.052Z,64.82
2019-05-25T11:06:34.982Z,63.83
2019-05-25T11:07:33.911Z,64.31
2019-05-25T11:09:33.990Z,64.31
2019-05-25T11:11:33.992Z,64.40
2019-05-25T11:12:33.976Z,63.89
2019-05-25T11:13:34.045Z,63.99
2019-05-25T11:14:34.688Z,65.52
2019-05-25T11:15:34.044Z,65.75
2019-05-25T11:16:34.095Z,64.53
2019-05-25T11:17:35.429Z,64.05
2019-05-25T11:18:34.073Z,64.43
2019-05-25T11:19:34.340Z,63.79
2019-05-25T11:20:34.175Z,62.71
2019-05-25T11:21:34.116Z,63.32
2019-05-25T11:22:34.134Z,64.28
2019-05-25T11:23:34.198Z,63.41
2019-05-25T11:24:34.166Z,62.93
2019-05-25T11:26:34.236Z,62.93
2019-05-25T11:27:34.669Z,61.40
2019-05-25T11:28:34.305Z,61.49
2019-05-25T11:29:34.455Z,63.51
2019-05-25T11:30:34.559Z,62.07
2019-05-25T11:31:34.408Z,61.43
2019-05-25T11:32:34.390Z,61.61
2019-05-25T11:33:36.459Z,60.14
2019-05-25T11:34:34.322Z,59.95
2019-05-25T11:36:34.356Z,61.27
2019-05-25T11:37:34.580Z,61.84
2019-05-25T11:38:34.412Z,63.09
2019-05-25T11:39:34.482Z,62.23
2019-05-25T11:40:34.554Z,62.42
2019-05-25T11:41:35.137Z,61.55
2019-05-25T11:42:34.522Z,62.04
2019-05-25T11:44:34.485Z,63.38
2019-05-25T11:45:34.508Z,63.09
2019-05-25T11:46:35.340Z,63.02
2019-05-25T11:48:34.555Z,61.97
2019-05-25T11:49:34.926Z,62.16
2019-05-25T11:50:34.622Z,61.97
2019-05-25T11:51:34.602Z,61.58
2019-05-25T11:52:34.633Z,61.30
2019-05-25T11:53:34.646Z,61.58
2019-05-25T11:54:34.874Z,61.97
2019-05-25T11:56:34.703Z,60.46
2019-05-25T11:57:34.714Z,60.56
2019-05-25T11:58:47.117Z,61.11
2019-05-25T11:59:34.760Z,61.58
2019-05-25T12:00:34.948Z,62.07
2019-05-25T12:01:34.780Z,60.43
2019-05-25T12:02:34.779Z,60.24
2019-05-25T12:03:34.812Z,61.01
2019-05-25T12:04:34.813Z,60.82
2019-05-25T12:05:34.824Z,61.97
2019-05-25T12:06:34.846Z,60.91
2019-05-25T12:07:35.017Z,61.61
2019-05-25T12:08:34.897Z,60.53
2019-05-25T12:09:34.899Z,60.72
2019-05-25T12:10:34.909Z,61.27
2019-05-25T12:11:34.932Z,61.40
2019-05-25T12:12:34.947Z,61.58
2019-05-25T12:13:35.032Z,61.43
2019-05-25T12:14:35.020Z,59.66
2019-05-25T12:15:35.130Z,59.60
2019-05-25T12:16:35.037Z,60.08
2019-05-25T12:17:35.031Z,60.27
2019-05-25T12:18:35.186Z,61.04
2019-05-25T12:19:35.088Z,60.75
2019-05-25T12:21:35.123Z,59.95
2019-05-25T12:23:35.219Z,61.65
2019-05-25T12:24:35.169Z,62.35
2019-05-25T12:25:35.193Z,61.87
2019-05-25T12:26:35.188Z,61.87
2019-05-25T12:27:35.190Z,62.64
2019-05-25T12:28:35.667Z,62.26
2019-05-25T12:29:35.235Z,64.02
2019-05-25T12:30:40.825Z,62.77
2019-05-25T12:31:35.269Z,60.46
2019-05-25T12:32:35.675Z,62.68
2019-05-25T12:33:35.315Z,60.97
2019-05-25T12:34:35.556Z,60.30
2019-05-25T12:35:35.340Z,59.72
2019-05-25T12:36:35.423Z,59.72
2019-05-25T12:38:35.423Z,61.46
2019-05-25T12:39:35.412Z,62.16
2019-05-25T12:40:35.423Z,61.04
2019-05-25T12:42:35.469Z,58.76
2019-05-25T12:43:36.119Z,60.08
2019-05-25T12:44:35.500Z,62.03
2019-05-25T12:45:35.509Z,62.45
2019-05-25T12:46:35.529Z,61.49
2019-05-25T12:47:35.536Z,58.70
2019-05-25T12:48:35.585Z,60.62
2019-05-25T12:49:49.957Z,59.85
2019-05-25T12:50:35.828Z,57.95
2019-05-25T12:51:35.619Z,58.72
2019-05-25T12:52:35.702Z,58.15
2019-05-25T12:53:35.917Z,57.40
2019-05-25T12:54:35.705Z,57.31
2019-05-25T12:55:35.698Z,59.75
2019-05-25T12:56:35.812Z,57.24
2019-05-25T12:57:35.730Z,55.67
2019-05-25T12:58:35.773Z,55.77
2019-05-25T12:59:35.772Z,57.60
2019-05-25T13:00:35.906Z,56.90
2019-05-25T13:01:35.882Z,56.38
2019-05-25T13:02:36.121Z,56.58
2019-05-25T13:03:35.945Z,57.64
2019-05-25T13:05:36.286Z,58.22
2019-05-25T13:06:36.358Z,58.28
2019-05-25T13:09:36.525Z,58.70
2019-05-25T13:10:36.036Z,57.25
2019-05-25T13:11:36.040Z,57.80
2019-05-25T13:13:36.267Z,58.22
2019-05-25T13:14:36.549Z,57.51
2019-05-25T13:15:36.150Z,58.47
2019-05-25T13:16:36.174Z,59.44
2019-05-25T13:17:36.124Z,60.39
2019-05-25T13:18:36.234Z,60.49
2019-05-25T13:19:36.168Z,58.31
2019-05-25T13:20:36.184Z,58.40
2019-05-25T13:21:36.193Z,58.34
2019-05-25T13:22:36.223Z,57.54
2019-05-25T13:24:36.275Z,59.05
2019-05-25T13:25:36.487Z,58.95
2019-05-25T13:26:36.286Z,59.94
2019-05-25T13:27:36.919Z,58.56
2019-05-25T13:28:36.428Z,56.54
2019-05-25T13:29:36.344Z,55.89
2019-05-25T13:30:36.394Z,56.74
2019-05-25T13:31:36.550Z,54.88
2019-05-25T13:32:36.397Z,54.31
2019-05-25T13:33:36.727Z,56.07
2019-05-25T13:34:37.104Z,53.33
2019-05-25T13:35:37.953Z,54.14
2019-05-25T13:36:37.220Z,54.43
2019-05-25T13:37:36.519Z,54.88
2019-05-25T13:39:37.124Z,54.72
2019-05-25T13:40:36.582Z,54.13
2019-05-25T13:41:36.614Z,52.41
2019-05-25T13:42:36.623Z,50.16
2019-05-25T13:43:36.617Z,49.95
2019-05-25T13:44:36.635Z,49.99
2019-05-25T13:45:37.394Z,51.77
2019-05-25T13:46:37.295Z,53.58
2019-05-25T13:47:36.690Z,52.95
2019-05-25T13:48:36.731Z,54.38
2019-05-25T13:49:36.772Z,54.35
2019-05-25T13:50:36.758Z,54.54
2019-05-25T13:51:36.770Z,55.12
2019-05-25T13:52:36.850Z,54.93
2019-05-25T13:53:36.813Z,55.12
2019-05-25T13:54:37.763Z,55.51
2019-05-25T13:55:36.846Z,54.52
2019-05-25T13:56:36.872Z,55.83
2019-05-25T13:57:37.424Z,56.99
2019-05-25T13:58:39.171Z,56.41
2019-05-25T13:59:37.061Z,56.60
2019-05-25T14:00:37.165Z,53.85
2019-05-25T14:01:37.006Z,51.68
2019-05-25T14:02:37.345Z,50.67